sensor_id;sensor_type;location;lat;lon;timestamp;pressure;altitude;pressure_sealevel;temperature;humidity
40356;BME280;26061;50.044;19.930;2023-03-19T00:01:07;98788.03;;;1.23;84.91
40356;BME280;26061;50.044;19.930;2023-03-19T00:03:41;98798.47;;;1.05;85.47
40356;BME280;26061;50.044;19.930;2023-03-19T00:06:07;98791.44;;;1.25;83.34
40356;BME280;26061;50.044;19.930;2023-03-19T00:08:33;98787.59;;;1.32;83.69
40356;BME280;26061;50.044;19.930;2023-03-19T00:11:05;98791.13;;;1.31;83.94
40356;BME280;26061;50.044;19.930;2023-03-19T00:13:30;98792.47;;;1.03;84.63
40356;BME280;26061;50.044;19.930;2023-03-19T00:15:56;98793.78;;;1.12;84.55
40356;BME280;26061;50.044;19.930;2023-03-19T00:18:22;98788.75;;;1.26;86.67
40356;BME280;26061;50.044;19.930;2023-03-19T00:20:48;98792.13;;;1.28;85.45
40356;BME280;26061;50.044;19.930;2023-03-19T00:23:13;98797.66;;;0.86;88.65
40356;BME280;26061;50.044;19.930;2023-03-19T00:25:39;98801.81;;;0.71;89.02
40356;BME280;26061;50.044;19.930;2023-03-19T00:28:05;98798.44;;;0.88;88.73
40356;BME280;26061;50.044;19.930;2023-03-19T00:30:30;98803.13;;;0.99;87.51
40356;BME280;26061;50.044;19.930;2023-03-19T00:32:56;98794.50;;;1.16;86.11
40356;BME280;26061;50.044;19.930;2023-03-19T00:35:22;98799.09;;;1.10;87.50
40356;BME280;26061;50.044;19.930;2023-03-19T00:37:47;98796.13;;;1.18;86.02
40356;BME280;26061;50.044;19.930;2023-03-19T00:40:13;98798.38;;;1.07;85.17
40356;BME280;26061;50.044;19.930;2023-03-19T00:42:39;98791.19;;;1.12;83.51
40356;BME280;26061;50.044;19.930;2023-03-19T00:45:06;98793.97;;;1.26;83.41
40356;BME280;26061;50.044;19.930;2023-03-19T00:47:32;98786.22;;;1.42;80.89
40356;BME280;26061;50.044;19.930;2023-03-19T00:49:58;98790.50;;;1.26;83.21
40356;BME280;26061;50.044;19.930;2023-03-19T00:52:23;98788.81;;;1.42;80.68
40356;BME280;26061;50.044;19.930;2023-03-19T00:54:50;98785.28;;;1.26;81.85
40356;BME280;26061;50.044;19.930;2023-03-19T00:57:16;98786.22;;;1.42;80.80
40356;BME280;26061;50.044;19.930;2023-03-19T00:59:41;98785.38;;;0.88;81.70
40356;BME280;26061;50.044;19.930;2023-03-19T01:02:07;98791.38;;;0.71;83.64
40356;BME280;26061;50.044;19.930;2023-03-19T01:04:33;98787.44;;;0.81;81.41
40356;BME280;26061;50.044;19.930;2023-03-19T01:06:58;98789.09;;;1.01;79.23
40356;BME280;26061;50.044;19.930;2023-03-19T01:09:25;98792.31;;;1.06;77.64
40356;BME280;26061;50.044;19.930;2023-03-19T01:11:51;98793.22;;;0.88;79.76
40356;BME280;26061;50.044;19.930;2023-03-19T01:14:17;98787.13;;;0.87;79.34
40356;BME280;26061;50.044;19.930;2023-03-19T01:16:42;98797.75;;;1.21;80.54
40356;BME280;26061;50.044;19.930;2023-03-19T01:19:08;98800.81;;;1.46;75.12
40356;BME280;26061;50.044;19.930;2023-03-19T01:21:34;98796.22;;;1.69;73.40
40356;BME280;26061;50.044;19.930;2023-03-19T01:24:01;98793.16;;;1.43;76.58
40356;BME280;26061;50.044;19.930;2023-03-19T01:26:27;98788.34;;;0.99;82.63
40356;BME280;26061;50.044;19.930;2023-03-19T01:28:53;98798.69;;;1.01;83.19
40356;BME280;26061;50.044;19.930;2023-03-19T01:31:19;98805.19;;;0.92;83.51
40356;BME280;26061;50.044;19.930;2023-03-19T01:33:45;98796.34;;;0.77;86.59
40356;BME280;26061;50.044;19.930;2023-03-19T01:36:11;98803.59;;;1.07;83.74
40356;BME280;26061;50.044;19.930;2023-03-19T01:38:36;98809.97;;;1.01;83.28
40356;BME280;26061;50.044;19.930;2023-03-19T01:41:02;98798.44;;;1.24;81.71
40356;BME280;26061;50.044;19.930;2023-03-19T01:43:29;98798.31;;;1.08;81.31
40356;BME280;26061;50.044;19.930;2023-03-19T01:46:11;98803.22;;;0.97;84.31
40356;BME280;26061;50.044;19.930;2023-03-19T01:48:49;98797.03;;;0.81;83.86
40356;BME280;26061;50.044;19.930;2023-03-19T01:51:19;98795.94;;;0.85;84.53
40356;BME280;26061;50.044;19.930;2023-03-19T01:53:51;98793.50;;;0.82;85.09
40356;BME280;26061;50.044;19.930;2023-03-19T01:56:24;98790.69;;;0.68;85.51
40356;BME280;26061;50.044;19.930;2023-03-19T01:59:03;98781.66;;;0.75;86.07
40356;BME280;26061;50.044;19.930;2023-03-19T02:01:34;98789.72;;;0.51;86.55
40356;BME280;26061;50.044;19.930;2023-03-19T02:04:02;98797.38;;;0.73;85.05
40356;BME280;26061;50.044;19.930;2023-03-19T02:06:28;98789.69;;;0.89;82.94
40356;BME280;26061;50.044;19.930;2023-03-19T02:08:55;98793.75;;;0.95;82.21
40356;BME280;26061;50.044;19.930;2023-03-19T02:11:21;98788.44;;;0.41;85.93
40356;BME280;26061;50.044;19.930;2023-03-19T02:13:47;98784.19;;;0.57;85.15
40356;BME280;26061;50.044;19.930;2023-03-19T02:16:13;98786.91;;;0.56;84.79
40356;BME280;26061;50.044;19.930;2023-03-19T02:18:40;98787.94;;;0.52;86.27
40356;BME280;26061;50.044;19.930;2023-03-19T02:21:08;98788.88;;;0.70;83.89
40356;BME280;26061;50.044;19.930;2023-03-19T02:26:11;98790.53;;;0.71;85.89
40356;BME280;26061;50.044;19.930;2023-03-19T02:28:41;98790.13;;;0.61;86.64
40356;BME280;26061;50.044;19.930;2023-03-19T02:31:09;98783.50;;;0.54;87.71
40356;BME280;26061;50.044;19.930;2023-03-19T02:33:35;98794.13;;;0.49;88.52
40356;BME280;26061;50.044;19.930;2023-03-19T02:36:02;98795.66;;;0.36;88.25
40356;BME280;26061;50.044;19.930;2023-03-19T02:38:32;98793.84;;;0.17;90.16
40356;BME280;26061;50.044;19.930;2023-03-19T02:41:05;98788.72;;;0.35;89.23
40356;BME280;26061;50.044;19.930;2023-03-19T02:43:35;98794.34;;;0.26;89.33
40356;BME280;26061;50.044;19.930;2023-03-19T02:46:02;98794.06;;;0.32;89.66
40356;BME280;26061;50.044;19.930;2023-03-19T02:48:28;98800.38;;;0.07;90.65
40356;BME280;26061;50.044;19.930;2023-03-19T02:50:54;98792.28;;;0.13;90.92
40356;BME280;26061;50.044;19.930;2023-03-19T02:53:20;98800.75;;;0.18;91.29
40356;BME280;26061;50.044;19.930;2023-03-19T02:55:46;98794.75;;;0.16;90.72
40356;BME280;26061;50.044;19.930;2023-03-19T02:58:12;98799.84;;;0.19;90.72
40356;BME280;26061;50.044;19.930;2023-03-19T03:00:38;98793.72;;;0.20;89.98
40356;BME280;26061;50.044;19.930;2023-03-19T03:03:05;98797.00;;;0.05;90.76
40356;BME280;26061;50.044;19.930;2023-03-19T03:05:32;98798.09;;;-0.01;91.40
40356;BME280;26061;50.044;19.930;2023-03-19T03:07:58;98805.06;;;0.19;91.99
40356;BME280;26061;50.044;19.930;2023-03-19T03:10:24;98802.25;;;0.24;91.59
40356;BME280;26061;50.044;19.930;2023-03-19T03:12:50;98804.19;;;0.19;93.64
40356;BME280;26061;50.044;19.930;2023-03-19T03:15:16;98813.91;;;0.36;94.65
40356;BME280;26061;50.044;19.930;2023-03-19T03:17:43;98805.78;;;0.42;94.42
40356;BME280;26061;50.044;19.930;2023-03-19T03:20:11;98813.41;;;0.28;96.06
40356;BME280;26061;50.044;19.930;2023-03-19T03:22:37;98805.69;;;0.25;99.42
40356;BME280;26061;50.044;19.930;2023-03-19T03:25:03;98813.47;;;0.26;100.00
40356;BME280;26061;50.044;19.930;2023-03-19T03:27:29;98806.47;;;0.27;97.87
40356;BME280;26061;50.044;19.930;2023-03-19T03:29:55;98814.44;;;0.24;98.52
40356;BME280;26061;50.044;19.930;2023-03-19T03:32:22;98816.03;;;0.07;98.61
40356;BME280;26061;50.044;19.930;2023-03-19T03:34:47;98818.22;;;-0.03;99.52
40356;BME280;26061;50.044;19.930;2023-03-19T03:37:13;98815.78;;;-0.07;100.00
40356;BME280;26061;50.044;19.930;2023-03-19T03:39:39;98814.03;;;-0.07;99.13
40356;BME280;26061;50.044;19.930;2023-03-19T03:42:06;98823.50;;;-0.25;100.00
40356;BME280;26061;50.044;19.930;2023-03-19T03:44:31;98824.22;;;0.18;98.62
40356;BME280;26061;50.044;19.930;2023-03-19T03:46:57;98822.78;;;-0.08;98.73
40356;BME280;26061;50.044;19.930;2023-03-19T03:49:22;98823.53;;;-0.06;97.35
40356;BME280;26061;50.044;19.930;2023-03-19T03:51:48;98818.72;;;0.25;96.05
40356;BME280;26061;50.044;19.930;2023-03-19T03:54:14;98820.97;;;0.13;97.19
40356;BME280;26061;50.044;19.930;2023-03-19T03:56:41;98815.50;;;0.19;95.90
40356;BME280;26061;50.044;19.930;2023-03-19T03:59:06;98813.13;;;0.34;92.97
40356;BME280;26061;50.044;19.930;2023-03-19T04:01:32;98814.44;;;0.24;95.13
40356;BME280;26061;50.044;19.930;2023-03-19T04:03:58;98810.53;;;0.13;96.31
40356;BME280;26061;50.044;19.930;2023-03-19T04:06:26;98810.16;;;0.22;96.44
40356;BME280;26061;50.044;19.930;2023-03-19T04:08:52;98811.69;;;-0.13;97.88
40356;BME280;26061;50.044;19.930;2023-03-19T04:11:19;98810.69;;;0.10;95.60
40356;BME280;26061;50.044;19.930;2023-03-19T04:13:44;98809.09;;;0.27;93.49
40356;BME280;26061;50.044;19.930;2023-03-19T04:16:10;98810.84;;;0.26;92.73
40356;BME280;26061;50.044;19.930;2023-03-19T04:18:36;98807.69;;;-0.01;95.26
40356;BME280;26061;50.044;19.930;2023-03-19T04:21:04;98814.50;;;0.03;95.63
40356;BME280;26061;50.044;19.930;2023-03-19T04:23:30;98809.00;;;-0.11;97.51
40356;BME280;26061;50.044;19.930;2023-03-19T04:26:03;98805.34;;;0.32;90.74
40356;BME280;26061;50.044;19.930;2023-03-19T04:28:29;98812.41;;;0.30;87.26
40356;BME280;26061;50.044;19.930;2023-03-19T04:31:02;98806.97;;;0.35;86.74
40356;BME280;26061;50.044;19.930;2023-03-19T04:33:28;98813.13;;;0.34;89.75
40356;BME280;26061;50.044;19.930;2023-03-19T04:35:55;98808.16;;;0.47;86.79
40356;BME280;26061;50.044;19.930;2023-03-19T04:38:21;98809.19;;;0.44;86.65
40356;BME280;26061;50.044;19.930;2023-03-19T04:40:48;98812.63;;;0.82;82.71
40356;BME280;26061;50.044;19.930;2023-03-19T04:43:14;98812.84;;;0.78;82.04
40356;BME280;26061;50.044;19.930;2023-03-19T04:45:40;98806.28;;;0.50;85.33
40356;BME280;26061;50.044;19.930;2023-03-19T04:48:06;98813.13;;;0.72;84.98
40356;BME280;26061;50.044;19.930;2023-03-19T04:50:32;98804.06;;;0.79;82.50
40356;BME280;26061;50.044;19.930;2023-03-19T04:52:59;98798.72;;;0.63;83.56
40356;BME280;26061;50.044;19.930;2023-03-19T04:55:24;98799.31;;;0.70;85.08
40356;BME280;26061;50.044;19.930;2023-03-19T04:57:50;98802.75;;;0.51;88.27
40356;BME280;26061;50.044;19.930;2023-03-19T05:00:16;98798.47;;;0.50;89.26
40356;BME280;26061;50.044;19.930;2023-03-19T05:02:42;98797.53;;;0.51;89.09
40356;BME280;26061;50.044;19.930;2023-03-19T05:05:09;98797.19;;;0.40;89.21
40356;BME280;26061;50.044;19.930;2023-03-19T05:07:38;98794.03;;;0.52;84.47
40356;BME280;26061;50.044;19.930;2023-03-19T05:10:04;98794.38;;;0.63;82.49
40356;BME280;26061;50.044;19.930;2023-03-19T05:12:30;98800.41;;;0.83;80.45
40356;BME280;26061;50.044;19.930;2023-03-19T05:14:56;98808.28;;;1.00;79.13
40356;BME280;26061;50.044;19.930;2023-03-19T05:17:22;98796.66;;;1.07;77.86
40356;BME280;26061;50.044;19.930;2023-03-19T05:19:48;98798.38;;;1.07;77.63
40356;BME280;26061;50.044;19.930;2023-03-19T05:22:14;98805.16;;;1.11;78.93
40356;BME280;26061;50.044;19.930;2023-03-19T05:24:40;98811.66;;;1.21;78.23
40356;BME280;26061;50.044;19.930;2023-03-19T05:27:05;98810.59;;;1.43;73.52
40356;BME280;26061;50.044;19.930;2023-03-19T05:29:32;98807.72;;;1.47;72.61
40356;BME280;26061;50.044;19.930;2023-03-19T05:31:57;98811.91;;;1.69;71.33
40356;BME280;26061;50.044;19.930;2023-03-19T05:34:24;98809.97;;;1.72;70.68
40356;BME280;26061;50.044;19.930;2023-03-19T05:36:50;98818.72;;;1.89;69.89
40356;BME280;26061;50.044;19.930;2023-03-19T05:39:16;98815.81;;;2.28;67.87
40356;BME280;26061;50.044;19.930;2023-03-19T05:41:41;98810.25;;;2.34;67.20
40356;BME280;26061;50.044;19.930;2023-03-19T05:44:07;98810.09;;;2.37;66.37
40356;BME280;26061;50.044;19.930;2023-03-19T05:46:33;98815.69;;;2.47;66.02
40356;BME280;26061;50.044;19.930;2023-03-19T05:48:59;98817.56;;;2.61;65.59
40356;BME280;26061;50.044;19.930;2023-03-19T05:51:25;98804.91;;;2.69;65.00
40356;BME280;26061;50.044;19.930;2023-03-19T05:53:51;98799.66;;;2.85;64.80
40356;BME280;26061;50.044;19.930;2023-03-19T05:56:16;98801.66;;;2.96;64.11
40356;BME280;26061;50.044;19.930;2023-03-19T05:58:42;98818.09;;;2.99;63.85
40356;BME280;26061;50.044;19.930;2023-03-19T06:01:07;98812.34;;;3.39;62.79
40356;BME280;26061;50.044;19.930;2023-03-19T06:03:33;98809.38;;;3.45;62.64
40356;BME280;26061;50.044;19.930;2023-03-19T06:05:59;98802.22;;;3.63;61.91
40356;BME280;26061;50.044;19.930;2023-03-19T06:08:25;98809.28;;;3.76;62.04
40356;BME280;26061;50.044;19.930;2023-03-19T06:10:51;98806.88;;;3.88;61.27
40356;BME280;26061;50.044;19.930;2023-03-19T06:13:18;98808.38;;;3.92;61.97
40356;BME280;26061;50.044;19.930;2023-03-19T06:15:43;98815.16;;;4.10;61.52
40356;BME280;26061;50.044;19.930;2023-03-19T06:18:09;98815.91;;;4.27;61.78
40356;BME280;26061;50.044;19.930;2023-03-19T06:20:35;98818.69;;;4.52;62.29
40356;BME280;26061;50.044;19.930;2023-03-19T06:23:01;98813.19;;;4.42;61.43
40356;BME280;26061;50.044;19.930;2023-03-19T06:25:27;98815.34;;;4.50;62.26
40356;BME280;26061;50.044;19.930;2023-03-19T06:27:52;98820.84;;;4.88;61.67
40356;BME280;26061;50.044;19.930;2023-03-19T06:30:18;98818.16;;;5.03;61.08
40356;BME280;26061;50.044;19.930;2023-03-19T06:32:44;98820.88;;;5.01;60.70
40356;BME280;26061;50.044;19.930;2023-03-19T06:35:10;98824.34;;;5.16;60.23
40356;BME280;26061;50.044;19.930;2023-03-19T06:37:36;98818.53;;;5.38;61.10
40356;BME280;26061;50.044;19.930;2023-03-19T06:40:03;98825.72;;;5.62;59.84
40356;BME280;26061;50.044;19.930;2023-03-19T06:42:30;98829.72;;;5.54;60.25
40356;BME280;26061;50.044;19.930;2023-03-19T06:44:56;98825.81;;;5.87;61.44
40356;BME280;26061;50.044;19.930;2023-03-19T06:47:22;98829.34;;;5.86;58.66
40356;BME280;26061;50.044;19.930;2023-03-19T06:49:47;98827.09;;;5.94;59.01
40356;BME280;26061;50.044;19.930;2023-03-19T06:52:13;98818.03;;;6.50;58.35
40356;BME280;26061;50.044;19.930;2023-03-19T06:54:39;98823.53;;;6.34;58.82
40356;BME280;26061;50.044;19.930;2023-03-19T06:57:05;98820.75;;;6.61;57.73
40356;BME280;26061;50.044;19.930;2023-03-19T06:59:31;98814.78;;;6.96;57.67
40356;BME280;26061;50.044;19.930;2023-03-19T07:01:57;98812.84;;;7.10;57.15
40356;BME280;26061;50.044;19.930;2023-03-19T07:04:22;98820.09;;;7.44;57.18
40356;BME280;26061;50.044;19.930;2023-03-19T07:06:48;98813.97;;;7.78;55.56
40356;BME280;26061;50.044;19.930;2023-03-19T07:09:14;98813.84;;;8.27;55.00
40356;BME280;26061;50.044;19.930;2023-03-19T07:11:40;98817.00;;;8.43;54.36
40356;BME280;26061;50.044;19.930;2023-03-19T07:14:06;98813.78;;;8.62;54.84
40356;BME280;26061;50.044;19.930;2023-03-19T07:16:32;98810.53;;;8.70;53.88
40356;BME280;26061;50.044;19.930;2023-03-19T07:18:58;98816.50;;;8.83;53.83
40356;BME280;26061;50.044;19.930;2023-03-19T07:21:24;98817.59;;;8.92;53.92
40356;BME280;26061;50.044;19.930;2023-03-19T07:23:49;98817.59;;;9.03;54.46
40356;BME280;26061;50.044;19.930;2023-03-19T07:26:17;98818.06;;;8.97;54.43
40356;BME280;26061;50.044;19.930;2023-03-19T07:28:43;98818.19;;;8.95;55.31
40356;BME280;26061;50.044;19.930;2023-03-19T07:31:09;98820.91;;;9.27;54.30
40356;BME280;26061;50.044;19.930;2023-03-19T07:33:35;98824.44;;;9.49;54.27
40356;BME280;26061;50.044;19.930;2023-03-19T07:36:01;98821.44;;;9.95;52.55
40356;BME280;26061;50.044;19.930;2023-03-19T07:38:26;98816.69;;;10.31;50.81
40356;BME280;26061;50.044;19.930;2023-03-19T07:40:52;98814.53;;;11.56;48.67
40356;BME280;26061;50.044;19.930;2023-03-19T07:43:18;98815.34;;;12.15;45.23
40356;BME280;26061;50.044;19.930;2023-03-19T07:45:44;98813.34;;;12.46;43.90
40356;BME280;26061;50.044;19.930;2023-03-19T07:48:10;98819.88;;;13.80;41.53
40356;BME280;26061;50.044;19.930;2023-03-19T07:50:36;98811.06;;;14.23;40.93
40356;BME280;26061;50.044;19.930;2023-03-19T07:53:02;98807.19;;;14.70;39.74
40356;BME280;26061;50.044;19.930;2023-03-19T07:55:28;98806.53;;;12.61;42.25
40356;BME280;26061;50.044;19.930;2023-03-19T07:57:54;98803.19;;;13.60;40.68
40356;BME280;26061;50.044;19.930;2023-03-19T08:00:20;98814.94;;;13.49;40.11
40356;BME280;26061;50.044;19.930;2023-03-19T08:02:46;98799.56;;;12.88;41.86
40356;BME280;26061;50.044;19.930;2023-03-19T08:05:13;98809.06;;;13.64;40.19
40356;BME280;26061;50.044;19.930;2023-03-19T08:07:38;98798.88;;;14.03;38.92
40356;BME280;26061;50.044;19.930;2023-03-19T08:10:06;98789.81;;;14.66;37.85
40356;BME280;26061;50.044;19.930;2023-03-19T08:12:32;98799.53;;;14.49;37.76
40356;BME280;26061;50.044;19.930;2023-03-19T08:15:04;98787.13;;;16.64;34.58
40356;BME280;26061;50.044;19.930;2023-03-19T08:17:30;98782.94;;;16.78;33.66
40356;BME280;26061;50.044;19.930;2023-03-19T08:19:59;98785.47;;;18.11;32.41
40356;BME280;26061;50.044;19.930;2023-03-19T08:22:24;98787.13;;;18.12;30.74
40356;BME280;26061;50.044;19.930;2023-03-19T08:24:50;98775.19;;;19.18;30.85
40356;BME280;26061;50.044;19.930;2023-03-19T08:27:16;98786.88;;;18.21;30.94
40356;BME280;26061;50.044;19.930;2023-03-19T08:29:42;98790.59;;;19.09;29.20
40356;BME280;26061;50.044;19.930;2023-03-19T08:32:07;98775.31;;;21.22;26.77
40356;BME280;26061;50.044;19.930;2023-03-19T08:34:34;98794.31;;;17.96;30.62
40356;BME280;26061;50.044;19.930;2023-03-19T08:36:59;98785.75;;;18.16;30.51
40356;BME280;26061;50.044;19.930;2023-03-19T08:39:25;98789.16;;;17.41;31.61
40356;BME280;26061;50.044;19.930;2023-03-19T08:41:51;98790.13;;;15.81;34.08
40356;BME280;26061;50.044;19.930;2023-03-19T08:44:17;98784.13;;;16.59;33.07
40356;BME280;26061;50.044;19.930;2023-03-19T08:46:42;98791.09;;;16.20;33.43
40356;BME280;26061;50.044;19.930;2023-03-19T08:49:08;98784.81;;;17.08;32.38
40356;BME280;26061;50.044;19.930;2023-03-19T08:51:34;98788.72;;;17.83;31.13
40356;BME280;26061;50.044;19.930;2023-03-19T08:54:01;98797.06;;;18.41;30.57
40356;BME280;26061;50.044;19.930;2023-03-19T08:56:26;98781.47;;;17.06;31.97
40356;BME280;26061;50.044;19.930;2023-03-19T08:58:55;98783.28;;;18.29;30.65
40356;BME280;26061;50.044;19.930;2023-03-19T09:01:21;98786.06;;;16.98;32.55
40356;BME280;26061;50.044;19.930;2023-03-19T09:03:47;98777.81;;;19.12;30.12
40356;BME280;26061;50.044;19.930;2023-03-19T09:06:13;98787.56;;;18.98;29.31
40356;BME280;26061;50.044;19.930;2023-03-19T09:08:41;98786.06;;;20.39;27.13
40356;BME280;26061;50.044;19.930;2023-03-19T09:11:07;98774.84;;;21.05;26.35
40356;BME280;26061;50.044;19.930;2023-03-19T09:13:35;98787.19;;;21.34;26.39
40356;BME280;26061;50.044;19.930;2023-03-19T09:16:01;98788.81;;;19.96;27.23
40356;BME280;26061;50.044;19.930;2023-03-19T09:18:27;98781.16;;;18.99;28.80
40356;BME280;26061;50.044;19.930;2023-03-19T09:20:53;98797.78;;;17.74;30.08
40356;BME280;26061;50.044;19.930;2023-03-19T09:23:20;98782.22;;;18.15;29.47
40356;BME280;26061;50.044;19.930;2023-03-19T09:25:46;98777.16;;;20.73;27.73
40356;BME280;26061;50.044;19.930;2023-03-19T09:28:12;98774.47;;;20.38;26.86
40356;BME280;26061;50.044;19.930;2023-03-19T09:30:37;98790.81;;;18.93;29.44
40356;BME280;26061;50.044;19.930;2023-03-19T09:33:04;98779.38;;;18.61;28.83
40356;BME280;26061;50.044;19.930;2023-03-19T09:35:30;98781.41;;;16.83;31.69
40356;BME280;26061;50.044;19.930;2023-03-19T09:37:58;98774.44;;;18.20;30.22
40356;BME280;26061;50.044;19.930;2023-03-19T09:40:45;98783.72;;;17.80;30.92
40356;BME280;26061;50.044;19.930;2023-03-19T09:46:12;98752.09;;;21.21;26.69
40356;BME280;26061;50.044;19.930;2023-03-19T09:48:54;98763.91;;;20.15;27.50
40356;BME280;26061;50.044;19.930;2023-03-19T09:51:42;98753.38;;;20.77;27.15
40356;BME280;26061;50.044;19.930;2023-03-19T09:55:04;98774.19;;;19.41;27.84
40356;BME280;26061;50.044;19.930;2023-03-19T09:57:07;98763.09;;;20.78;26.65
40356;BME280;26061;50.044;19.930;2023-03-19T09:59:34;98766.94;;;21.03;26.01
40356;BME280;26061;50.044;19.930;2023-03-19T10:04:40;98757.63;;;21.81;25.05
40356;BME280;26061;50.044;19.930;2023-03-19T10:07:31;98754.00;;;20.51;26.59
40356;BME280;26061;50.044;19.930;2023-03-19T10:15:28;98760.69;;;17.63;30.63
40356;BME280;26061;50.044;19.930;2023-03-19T10:17:58;98752.66;;;18.38;29.27
40356;BME280;26061;50.044;19.930;2023-03-19T10:20:31;98749.59;;;20.08;28.32
40356;BME280;26061;50.044;19.930;2023-03-19T10:25:45;98743.50;;;21.59;25.38
40356;BME280;26061;50.044;19.930;2023-03-19T10:28:14;98744.88;;;20.80;25.94
40356;BME280;26061;50.044;19.930;2023-03-19T10:30:44;98738.53;;;22.22;24.45
40356;BME280;26061;50.044;19.930;2023-03-19T10:35:43;98734.03;;;20.04;27.27
40356;BME280;26061;50.044;19.930;2023-03-19T10:38:21;98740.47;;;21.33;25.32
40356;BME280;26061;50.044;19.930;2023-03-19T10:43:30;98727.56;;;19.98;27.59
40356;BME280;26061;50.044;19.930;2023-03-19T10:45:56;98729.53;;;20.74;26.53
40356;BME280;26061;50.044;19.930;2023-03-19T10:48:24;98720.91;;;20.98;26.21
40356;BME280;26061;50.044;19.930;2023-03-19T10:51:00;98717.53;;;22.89;24.29
40356;BME280;26061;50.044;19.930;2023-03-19T10:53:35;98725.16;;;22.54;24.27
40356;BME280;26061;50.044;19.930;2023-03-19T10:59:04;98714.47;;;20.16;27.05
40356;BME280;26061;50.044;19.930;2023-03-19T11:01:33;98712.78;;;21.53;26.60
40356;BME280;26061;50.044;19.930;2023-03-19T11:04:01;98708.81;;;22.29;25.17
40356;BME280;26061;50.044;19.930;2023-03-19T11:06:32;98695.22;;;24.39;23.48
40356;BME280;26061;50.044;19.930;2023-03-19T11:11:34;98692.75;;;22.47;24.17
40356;BME280;26061;50.044;19.930;2023-03-19T11:19:29;98679.13;;;24.62;22.00
40356;BME280;26061;50.044;19.930;2023-03-19T11:22:14;98667.47;;;28.68;18.40
40356;BME280;26061;50.044;19.930;2023-03-19T11:24:43;98659.13;;;29.56;17.07
40356;BME280;26061;50.044;19.930;2023-03-19T11:27:13;98651.81;;;28.41;18.35
40356;BME280;26061;50.044;19.930;2023-03-19T11:29:43;98654.75;;;28.34;17.96
40356;BME280;26061;50.044;19.930;2023-03-19T11:37:54;98660.41;;;25.75;20.13
40356;BME280;26061;50.044;19.930;2023-03-19T11:49:16;98656.00;;;20.93;24.98
40356;BME280;26061;50.044;19.930;2023-03-19T11:51:52;98645.84;;;24.00;22.38
40356;BME280;26061;50.044;19.930;2023-03-19T11:56:59;98635.78;;;22.55;23.84
40356;BME280;26061;50.044;19.930;2023-03-19T11:59:37;98634.53;;;23.85;22.33
40356;BME280;26061;50.044;19.930;2023-03-19T12:02:30;98631.84;;;25.61;20.71
40356;BME280;26061;50.044;19.930;2023-03-19T12:16:14;98630.41;;;25.46;20.86
40356;BME280;26061;50.044;19.930;2023-03-19T12:21:36;98629.91;;;26.44;19.46
40356;BME280;26061;50.044;19.930;2023-03-19T12:26:57;98612.78;;;26.55;19.02
40356;BME280;26061;50.044;19.930;2023-03-19T12:32:15;98608.81;;;24.31;21.62
40356;BME280;26061;50.044;19.930;2023-03-19T12:34:50;98609.59;;;24.98;20.59
40356;BME280;26061;50.044;19.930;2023-03-19T12:37:27;98625.03;;;20.69;24.59
40356;BME280;26061;50.044;19.930;2023-03-19T12:42:49;98615.41;;;21.81;23.77
40356;BME280;26061;50.044;19.930;2023-03-19T12:45:28;98615.72;;;22.76;23.29
40356;BME280;26061;50.044;19.930;2023-03-19T12:48:01;98594.84;;;22.97;23.55
40356;BME280;26061;50.044;19.930;2023-03-19T12:50:30;98606.13;;;22.80;23.32
40356;BME280;26061;50.044;19.930;2023-03-19T12:52:59;98601.16;;;23.41;22.07
40356;BME280;26061;50.044;19.930;2023-03-19T12:55:36;98594.28;;;23.45;22.77
40356;BME280;26061;50.044;19.930;2023-03-19T12:58:21;98588.66;;;22.45;22.95
40356;BME280;26061;50.044;19.930;2023-03-19T13:03:28;98594.81;;;20.74;25.46
40356;BME280;26061;50.044;19.930;2023-03-19T13:06:02;98595.03;;;20.79;25.07
40356;BME280;26061;50.044;19.930;2023-03-19T13:08:38;98591.84;;;20.14;25.72
40356;BME280;26061;50.044;19.930;2023-03-19T13:11:15;98591.69;;;20.29;26.72
40356;BME280;26061;50.044;19.930;2023-03-19T13:13:57;98594.63;;;21.82;24.61
40356;BME280;26061;50.044;19.930;2023-03-19T13:16:39;98584.09;;;22.38;23.47
40356;BME280;26061;50.044;19.930;2023-03-19T13:19:28;98589.38;;;22.20;23.88
40356;BME280;26061;50.044;19.930;2023-03-19T13:22:03;98586.38;;;22.35;23.47
40356;BME280;26061;50.044;19.930;2023-03-19T13:24:36;98578.19;;;23.93;21.94
40356;BME280;26061;50.044;19.930;2023-03-19T13:27:05;98578.25;;;24.60;21.97
40356;BME280;26061;50.044;19.930;2023-03-19T13:29:33;98587.97;;;22.56;23.21
40356;BME280;26061;50.044;19.930;2023-03-19T13:32:19;98584.09;;;21.53;24.07
40356;BME280;26061;50.044;19.930;2023-03-19T13:34:47;98586.50;;;22.60;22.71
40356;BME280;26061;50.044;19.930;2023-03-19T13:39:40;98591.91;;;18.50;27.47
40356;BME280;26061;50.044;19.930;2023-03-19T13:44:53;98579.59;;;18.05;28.80
40356;BME280;26061;50.044;19.930;2023-03-19T14:01:03;98564.25;;;18.71;28.06
40356;BME280;26061;50.044;19.930;2023-03-19T14:03:40;98557.75;;;18.80;28.22
40356;BME280;26061;50.044;19.930;2023-03-19T14:15:27;98558.53;;;18.38;29.42
40356;BME280;26061;50.044;19.930;2023-03-19T14:17:33;98552.03;;;17.81;29.69
40356;BME280;26061;50.044;19.930;2023-03-19T14:20:16;98557.56;;;17.80;29.73
40356;BME280;26061;50.044;19.930;2023-03-19T14:28:36;98548.34;;;18.33;30.16
40356;BME280;26061;50.044;19.930;2023-03-19T14:31:04;98557.47;;;18.03;30.33
40356;BME280;26061;50.044;19.930;2023-03-19T14:33:51;98546.44;;;18.12;31.14
40356;BME280;26061;50.044;19.930;2023-03-19T14:36:19;98543.50;;;17.92;31.45
40356;BME280;26061;50.044;19.930;2023-03-19T14:38:53;98548.22;;;17.90;30.96
40356;BME280;26061;50.044;19.930;2023-03-19T14:41:21;98542.38;;;18.16;30.53
40356;BME280;26061;50.044;19.930;2023-03-19T14:44:18;98547.88;;;17.78;31.32
40356;BME280;26061;50.044;19.930;2023-03-19T14:47:21;98560.72;;;17.16;31.77
40356;BME280;26061;50.044;19.930;2023-03-19T14:52:42;98562.34;;;17.40;31.53